Time;durP1;ratioP1;P1;durP2;ratioP2;P2;SDS_P1;SDS_P2;PMS_P1;PMS_P2;Temp;Humidity;BMP_temperature;BMP_pressure;BME280_temperature;BME280_humidity;BME280_pressure;Samples;Min_cycle;Max_cycle;Signal;HPM_P1;HPM_P2
2021/08/06 00:00:52;;;;;;;1.23;1.13;;;17.00;96.10;;;;;;5030373;28;20517;-79
2021/08/06 00:03:19;;;;;;;3.40;1.10;;;17.00;96.00;;;;;;5023854;28;20859;-79
2021/08/06 00:05:48;;;;;;;1.30;1.20;;;16.90;96.00;;;;;;5021407;28;20489;-80
2021/08/06 00:08:15;;;;;;;1.20;1.10;;;16.80;96.40;;;;;;5024861;28;20458;-79
2021/08/06 00:10:42;;;;;;;1.30;1.20;;;16.80;96.90;;;;;;5024462;28;20493;-79
2021/08/06 00:13:09;;;;;;;1.10;1.00;;;16.80;96.90;;;;;;5026871;28;21035;-77
2021/08/06 00:15:36;;;;;;;3.50;1.33;;;16.80;97.30;;;;;;5033215;28;20503;-78
2021/08/06 00:18:04;;;;;;;1.17;1.07;;;16.80;97.40;;;;;;5038041;28;20500;-79
2021/08/06 00:20:31;;;;;;;1.67;1.57;;;16.80;97.50;;;;;;5037111;28;20459;-76
2021/08/06 00:22:59;;;;;;;4.40;1.10;;;16.80;97.70;;;;;;5034990;28;20461;-79
2021/08/06 00:25:26;;;;;;;1.07;1.03;;;16.70;97.60;;;;;;5031972;28;20872;-79
2021/08/06 00:27:53;;;;;;;2.10;1.50;;;16.70;97.30;;;;;;5020209;28;20443;-79
2021/08/06 00:30:20;;;;;;;0.90;0.90;;;16.60;97.20;;;;;;5016668;28;20443;-79
2021/08/06 00:32:47;;;;;;;1.80;1.40;;;16.60;97.60;;;;;;5017575;28;20457;-79
2021/08/06 00:35:14;;;;;;;2.30;1.10;;;16.60;97.60;;;;;;5017431;28;20518;-80
2021/08/06 00:37:41;;;;;;;1.37;1.27;;;16.60;97.60;;;;;;5017470;28;20472;-79
2021/08/06 00:40:10;;;;;;;1.23;1.17;;;16.60;97.60;;;;;;5018692;28;20577;-79
2021/08/06 00:42:37;;;;;;;1.40;1.30;;;16.60;97.60;;;;;;5018780;28;20903;-79
2021/08/06 00:45:05;;;;;;;1.43;1.33;;;16.50;97.60;;;;;;5018540;28;20551;-80
2021/08/06 00:47:34;;;;;;;1.27;1.17;;;16.40;97.60;;;;;;5018437;28;20457;-80
2021/08/06 00:50:01;;;;;;;1.30;1.20;;;16.30;97.60;;;;;;5017948;28;20517;-80
2021/08/06 00:52:28;;;;;;;1.60;1.50;;;16.30;98.30;;;;;;5018011;28;20452;-79
2021/08/06 00:54:55;;;;;;;1.33;1.00;;;16.20;98.60;;;;;;5017966;28;20523;-79
2021/08/06 00:57:23;;;;;;;1.67;1.20;;;16.20;99.20;;;;;;5018430;28;20497;-78
2021/08/06 00:59:50;;;;;;;1.30;1.20;;;16.20;99.60;;;;;;5017907;28;20526;-79
2021/08/06 01:02:20;;;;;;;2.50;1.57;;;16.20;99.80;;;;;;5018158;28;20461;-80
2021/08/06 01:04:54;;;;;;;2.20;1.10;;;16.30;99.90;;;;;;5017423;28;20457;-79
2021/08/06 01:07:27;;;;;;;1.33;1.20;;;16.30;99.90;;;;;;5017264;28;20501;-79
2021/08/06 01:09:58;;;;;;;1.93;1.60;;;16.30;99.90;;;;;;5017462;28;21072;-79
2021/08/06 01:12:34;;;;;;;1.87;1.20;;;16.40;99.80;;;;;;5024895;28;20517;-76
2021/08/06 01:15:03;;;;;;;1.43;1.33;;;16.50;99.40;;;;;;5038398;28;20472;-75
2021/08/06 01:17:33;;;;;;;1.50;1.40;;;16.60;99.40;;;;;;5033864;28;20517;-80
2021/08/06 01:20:05;;;;;;;1.70;1.60;;;16.60;98.90;;;;;;5036616;28;20469;-75
2021/08/06 01:22:41;;;;;;;1.80;1.70;;;16.60;98.70;;;;;;5038326;28;20438;-76
2021/08/06 01:25:13;;;;;;;1.50;1.40;;;16.60;98.00;;;;;;5026306;28;20454;-79
2021/08/06 01:27:44;;;;;;;2.80;1.53;;;16.60;98.20;;;;;;5021019;28;20485;-79
2021/08/06 01:30:14;;;;;;;1.50;1.30;;;16.70;98.20;;;;;;5020843;28;20468;-79
2021/08/06 01:32:41;;;;;;;1.73;1.30;;;16.70;98.50;;;;;;5021504;28;20480;-77
2021/08/06 01:35:10;;;;;;;1.50;1.40;;;16.80;98.20;;;;;;5022343;28;20741;-79
2021/08/06 01:37:37;;;;;;;2.50;1.30;;;16.80;97.50;;;;;;5022641;28;20461;-79
2021/08/06 01:40:08;;;;;;;1.57;1.47;;;16.90;97.30;;;;;;5025304;28;20517;-80
2021/08/06 01:42:43;;;;;;;1.40;1.40;;;17.00;96.90;;;;;;5030904;28;20490;-79
2021/08/06 01:45:16;;;;;;;1.27;1.13;;;17.10;96.20;;;;;;5026481;28;20472;-79
2021/08/06 01:47:46;;;;;;;4.30;1.47;;;17.10;95.90;;;;;;5027863;28;20467;-79
2021/08/06 01:50:16;;;;;;;1.73;1.07;;;17.10;95.00;;;;;;5020895;28;20501;-80
2021/08/06 01:52:48;;;;;;;1.50;1.40;;;17.10;94.70;;;;;;5022093;28;20525;-78
2021/08/06 01:55:17;;;;;;;1.90;1.43;;;17.10;94.20;;;;;;5023871;28;20504;-79
2021/08/06 01:57:48;;;;;;;2.20;1.60;;;17.10;94.20;;;;;;5031199;28;20466;-78
2021/08/06 02:00:16;;;;;;;1.77;1.67;;;17.20;94.20;;;;;;5030836;28;20489;-78
2021/08/06 02:02:43;;;;;;;2.20;1.20;;;17.20;94.20;;;;;;5031279;28;20453;-79
2021/08/06 02:05:11;;;;;;;1.50;1.40;;;17.20;93.80;;;;;;5030121;28;20497;-79
2021/08/06 02:07:38;;;;;;;1.40;1.30;;;17.20;93.50;;;;;;5032296;28;20482;-77
2021/08/06 02:10:06;;;;;;;1.73;1.30;;;17.20;94.00;;;;;;5029043;28;20529;-79
2021/08/06 02:12:34;;;;;;;1.30;1.23;;;17.30;94.00;;;;;;5022467;28;20912;-79
2021/08/06 02:15:02;;;;;;;1.23;1.23;;;17.30;93.30;;;;;;5018560;28;20489;-79
2021/08/06 02:17:31;;;;;;;1.37;1.13;;;17.30;93.60;;;;;;5019456;28;20462;-79
2021/08/06 02:19:59;;;;;;;2.37;1.23;;;17.30;93.00;;;;;;5018026;28;20576;-79
2021/08/06 02:22:26;;;;;;;1.37;1.27;;;17.40;92.90;;;;;;5018970;28;20556;-79
2021/08/06 02:24:55;;;;;;;2.90;1.50;;;17.40;92.90;;;;;;4999000;28;21009;-80
2021/08/06 02:27:23;;;;;;;2.23;1.70;;;17.50;92.40;;;;;;5015842;28;20518;-78
2021/08/06 02:29:53;;;;;;;4.30;1.43;;;17.50;92.40;;;;;;5021907;28;20453;-79
2021/08/06 02:32:21;;;;;;;2.27;1.23;;;17.50;91.70;;;;;;5020194;28;20493;-80
2021/08/06 02:34:50;;;;;;;1.90;1.23;;;17.60;90.70;;;;;;5017269;28;20485;-79
2021/08/06 02:37:17;;;;;;;2.00;1.27;;;17.50;89.30;;;;;;5018732;28;20470;-79
2021/08/06 02:39:44;;;;;;;1.60;1.50;;;17.60;90.00;;;;;;5018096;28;20469;-78
2021/08/06 02:42:10;;;;;;;2.13;1.70;;;17.60;88.80;;;;;;5018576;28;20476;-79
2021/08/06 02:44:38;;;;;;;1.50;1.40;;;17.60;87.40;;;;;;5018796;28;20458;-78
2021/08/06 02:47:06;;;;;;;1.77;1.67;;;17.60;85.90;;;;;;5017851;28;20573;-79
2021/08/06 02:49:35;;;;;;;2.20;1.30;;;17.70;85.40;;;;;;5043113;22;20481;-79
2021/08/06 02:52:04;;;;;;;2.03;1.40;;;17.70;84.60;;;;;;5073417;28;20692;-81
2021/08/06 02:54:31;;;;;;;2.63;1.60;;;17.70;84.70;;;;;;5077090;28;20459;-80
2021/08/06 02:56:58;;;;;;;2.80;1.60;;;17.70;84.90;;;;;;5077294;28;20433;-81
2021/08/06 02:59:25;;;;;;;2.53;1.40;;;17.60;86.00;;;;;;5072374;28;20431;-80
2021/08/06 03:01:52;;;;;;;1.40;1.30;;;17.60;86.00;;;;;;5045982;28;20464;-80
2021/08/06 03:04:19;;;;;;;1.70;1.60;;;17.70;85.80;;;;;;5035836;28;20432;-80
2021/08/06 03:06:47;;;;;;;2.30;2.10;;;17.70;86.10;;;;;;5037428;28;20496;-79
2021/08/06 03:09:14;;;;;;;2.13;1.73;;;17.70;87.10;;;;;;5035559;28;20477;-79
2021/08/06 03:11:41;;;;;;;1.73;1.63;;;17.70;86.40;;;;;;5036617;28;20480;-79
2021/08/06 03:14:08;;;;;;;1.63;1.43;;;17.60;86.70;;;;;;5040103;28;20461;-79
2021/08/06 03:16:35;;;;;;;2.70;1.77;;;17.60;87.40;;;;;;5055181;28;20485;-79
2021/08/06 03:19:02;;;;;;;4.00;1.70;;;17.60;87.80;;;;;;5048920;28;20806;-80
2021/08/06 03:21:29;;;;;;;3.43;2.00;;;17.60;88.20;;;;;;5037833;28;20478;-80
2021/08/06 03:23:57;;;;;;;1.90;1.80;;;17.70;88.70;;;;;;5039986;28;20490;-80
2021/08/06 03:26:24;;;;;;;1.63;1.53;;;17.70;87.80;;;;;;5040729;28;20459;-81
2021/08/06 03:28:51;;;;;;;3.43;1.97;;;17.70;87.40;;;;;;5037691;28;20511;-80
2021/08/06 03:31:18;;;;;;;2.73;1.60;;;17.70;87.70;;;;;;5034760;28;20893;-81
2021/08/06 03:33:45;;;;;;;2.27;1.83;;;17.70;88.00;;;;;;5046110;28;20466;-80
2021/08/06 03:36:16;;;;;;;2.17;1.70;;;17.70;87.50;;;;;;5045073;28;20527;-82
2021/08/06 03:38:43;;;;;;;2.90;1.80;;;17.80;87.40;;;;;;5056664;28;20436;-81
2021/08/06 03:41:12;;;;;;;2.23;2.07;;;17.80;87.30;;;;;;5060420;28;20469;-78
2021/08/06 03:43:39;;;;;;;3.00;2.30;;;17.80;87.60;;;;;;5059409;28;20429;-80
2021/08/06 03:46:06;;;;;;;3.83;2.10;;;17.70;88.10;;;;;;5040145;28;20468;-81
2021/08/06 03:48:32;;;;;;;3.47;2.10;;;17.70;90.00;;;;;;5038613;28;20477;-82
2021/08/06 03:50:59;;;;;;;2.33;1.90;;;17.70;90.80;;;;;;5038347;28;20555;-81
2021/08/06 03:53:26;;;;;;;2.20;1.90;;;17.70;90.70;;;;;;5040381;28;20458;-80
2021/08/06 03:55:53;;;;;;;2.50;2.30;;;17.70;90.70;;;;;;5040606;28;20492;-80
2021/08/06 03:58:22;;;;;;;2.13;2.00;;;17.60;90.90;;;;;;5039752;28;20468;-80
2021/08/06 04:00:49;;;;;;;2.30;2.10;;;17.60;91.70;;;;;;5039440;28;20484;-80
2021/08/06 04:03:16;;;;;;;2.60;1.50;;;17.50;91.40;;;;;;5040469;28;20492;-80
2021/08/06 04:05:43;;;;;;;2.60;2.40;;;17.50;92.50;;;;;;5041015;28;20488;-80
2021/08/06 04:08:11;;;;;;;2.93;2.50;;;17.40;94.60;;;;;;5039820;28;20499;-79
2021/08/06 04:10:38;;;;;;;3.33;2.67;;;17.20;95.60;;;;;;5039513;28;21087;-79
2021/08/06 04:13:05;;;;;;;4.70;2.70;;;17.10;97.30;;;;;;5040924;28;20440;-79
2021/08/06 04:15:33;;;;;;;2.63;2.40;;;17.00;98.60;;;;;;5053266;28;20499;-80
2021/08/06 04:18:00;;;;;;;2.50;2.30;;;16.90;99.90;;;;;;5058456;28;20464;-79
2021/08/06 04:20:27;;;;;;;6.07;2.80;;;16.90;99.90;;;;;;5053736;28;20475;-79
2021/08/06 04:22:54;;;;;;;3.20;2.90;;;16.80;99.90;;;;;;5057255;28;20488;-79
2021/08/06 04:25:21;;;;;;;3.30;3.00;;;16.80;99.90;;;;;;5049984;28;20456;-78
2021/08/06 04:27:48;;;;;;;3.50;3.20;;;16.70;99.90;;;;;;5039269;28;20292;-79
2021/08/06 04:30:16;;;;;;;3.50;2.80;;;16.80;99.90;;;;;;5038692;28;20526;-78
2021/08/06 04:32:44;;;;;;;3.23;2.73;;;16.80;99.90;;;;;;5018076;28;20469;-79
2021/08/06 04:35:11;;;;;;;3.10;2.90;;;16.70;99.90;;;;;;5031970;28;20480;-78
2021/08/06 04:37:46;;;;;;;4.33;2.73;;;16.70;99.90;;;;;;5036945;28;20452;-79
2021/08/06 04:40:13;;;;;;;3.45;3.15;;;16.70;99.90;;;;;;5036033;28;20544;-79
2021/08/06 04:42:40;;;;;;;3.40;3.10;;;16.70;99.90;;;;;;5036293;28;20682;-79
2021/08/06 04:45:08;;;;;;;2.67;2.47;;;16.60;99.90;;;;;;5036661;28;20874;-79
2021/08/06 04:47:35;;;;;;;3.30;3.00;;;16.60;99.90;;;;;;5037608;28;20490;-79
2021/08/06 04:50:04;;;;;;;3.40;3.10;;;16.60;99.90;;;;;;5037657;28;20319;-78
2021/08/06 04:52:31;;;;;;;5.30;3.80;;;16.60;99.90;;;;;;5036677;28;20494;-80
2021/08/06 04:54:58;;;;;;;4.60;3.37;;;16.60;99.90;;;;;;5035877;28;20209;-79
2021/08/06 04:57:24;;;;;;;4.10;3.70;;;16.60;99.90;;;;;;5036077;28;21019;-78
2021/08/06 04:59:51;;;;;;;3.80;3.53;;;16.60;99.90;;;;;;5038289;28;20477;-79
2021/08/06 05:02:18;;;;;;;5.25;3.05;;;16.60;99.90;;;;;;5051964;28;20206;-81
2021/08/06 05:04:45;;;;;;;2.90;2.70;;;16.70;99.90;;;;;;5054573;28;20571;-78
2021/08/06 05:07:18;;;;;;;3.47;3.15;;;16.60;99.90;;;;;;5040145;28;20479;-78
2021/08/06 05:09:45;;;;;;;4.13;3.43;;;16.70;99.90;;;;;;5038107;28;20361;-79
2021/08/06 05:12:12;;;;;;;3.50;3.00;;;16.70;99.90;;;;;;5043882;28;20554;-79
2021/08/06 05:14:39;;;;;;;6.13;3.43;;;16.70;99.90;;;;;;5043779;28;20489;-79
2021/08/06 05:17:06;;;;;;;5.33;2.70;;;16.80;99.90;;;;;;5047309;28;20515;-78
2021/08/06 05:19:33;;;;;;;3.80;3.15;;;16.80;99.90;;;;;;5044696;28;20539;-81
2021/08/06 05:22:00;;;;;;;3.53;3.07;;;16.80;99.90;;;;;;5044294;28;20209;-78
2021/08/06 05:24:29;;;;;;;2.87;2.47;;;16.90;99.90;;;;;;5053941;28;20460;-79
2021/08/06 05:26:56;;;;;;;4.37;3.30;;;17.00;99.90;;;;;;5055644;28;20449;-78
2021/08/06 05:29:23;;;;;;;3.73;3.30;;;17.10;99.90;;;;;;5054416;28;20460;-77
2021/08/06 05:31:50;;;;;;;3.47;2.77;;;17.20;99.90;;;;;;5039700;28;20484;-78
2021/08/06 05:34:17;;;;;;;9.33;3.30;;;17.30;99.90;;;;;;5036394;28;20472;-78
2021/08/06 05:36:44;;;;;;;2.93;2.73;;;17.40;99.90;;;;;;5036275;28;20492;-77
2021/08/06 05:39:11;;;;;;;4.27;2.80;;;17.50;99.90;;;;;;5036175;28;20619;-78
2021/08/06 05:41:39;;;;;;;3.87;3.10;;;17.80;99.90;;;;;;5036728;28;20457;-78
2021/08/06 05:44:06;;;;;;;2.70;2.50;;;18.40;99.90;;;;;;5036450;28;20983;-77
2021/08/06 05:46:33;;;;;;;4.30;2.20;;;18.80;99.90;;;;;;5047969;28;20450;-79
2021/08/06 05:49:00;;;;;;;3.10;2.47;;;19.00;97.00;;;;;;5055109;28;20442;-79
2021/08/06 05:51:27;;;;;;;2.43;2.23;;;18.90;95.00;;;;;;5055155;28;20466;-80
2021/08/06 05:53:54;;;;;;;2.53;2.33;;;18.80;93.60;;;;;;5056586;28;20420;-79
2021/08/06 05:56:21;;;;;;;2.80;2.40;;;18.70;93.60;;;;;;5051874;28;20486;-78
2021/08/06 05:58:49;;;;;;;2.90;1.90;;;18.90;94.30;;;;;;5037314;28;20464;-77
2021/08/06 06:01:16;;;;;;;3.43;2.60;;;19.20;93.20;;;;;;5034526;28;20562;-76
2021/08/06 06:03:43;;;;;;;3.20;2.23;;;19.90;91.70;;;;;;5033946;28;20489;-77
2021/08/06 06:06:10;;;;;;;1.93;1.80;;;20.70;86.00;;;;;;5034117;28;20431;-77
2021/08/06 06:08:37;;;;;;;3.50;1.90;;;21.60;74.90;;;;;;5034146;28;20450;-77
2021/08/06 06:11:04;;;;;;;1.70;1.60;;;22.10;67.00;;;;;;5015387;28;20486;-77
2021/08/06 06:13:31;;;;;;;1.87;1.77;;;22.20;67.50;;;;;;5021203;28;20531;-76
2021/08/06 06:15:59;;;;;;;2.50;1.93;;;22.00;66.10;;;;;;5033150;28;20860;-77
2021/08/06 06:18:26;;;;;;;2.40;1.73;;;21.40;68.50;;;;;;5034596;28;20487;-77
2021/08/06 06:20:53;;;;;;;5.87;1.70;;;20.90;72.60;;;;;;5034844;28;20575;-78
2021/08/06 06:23:20;;;;;;;1.73;1.63;;;20.40;77.10;;;;;;5033356;28;20588;-78
2021/08/06 06:25:47;;;;;;;4.70;1.90;;;19.80;82.20;;;;;;5033632;28;20546;-78
2021/08/06 06:28:14;;;;;;;1.90;1.80;;;19.40;86.70;;;;;;5034496;28;20772;-77
2021/08/06 06:30:41;;;;;;;2.40;1.90;;;19.20;90.10;;;;;;5034452;28;20456;-78
2021/08/06 06:33:09;;;;;;;3.60;1.83;;;19.10;91.30;;;;;;5032515;28;20456;-77
2021/08/06 06:35:36;;;;;;;4.17;1.70;;;19.00;91.50;;;;;;5032461;28;21032;-77
2021/08/06 06:38:03;;;;;;;2.00;1.80;;;19.00;93.30;;;;;;5027615;28;20502;-76
2021/08/06 06:40:35;;;;;;;1.80;1.70;;;18.90;93.40;;;;;;5027068;28;20509;-78
2021/08/06 06:43:02;;;;;;;2.13;1.90;;;18.90;93.80;;;;;;5052161;28;20476;-78
2021/08/06 06:45:29;;;;;;;1.43;1.37;;;18.90;93.60;;;;;;5024745;28;20433;-77
2021/08/06 06:47:56;;;;;;;1.67;1.57;;;18.80;93.40;;;;;;5046237;28;20476;-78
2021/08/06 06:50:26;;;;;;;2.20;1.40;;;18.70;93.70;;;;;;5042759;28;20564;-76
2021/08/06 06:52:53;;;;;;;2.13;1.60;;;18.80;94.10;;;;;;5044881;28;20466;-78
2021/08/06 06:55:21;;;;;;;1.50;1.40;;;18.70;93.50;;;;;;5049720;28;20457;-77
2021/08/06 06:57:51;;;;;;;1.60;1.50;;;18.60;93.70;;;;;;5047125;28;20490;-80
2021/08/06 07:00:19;;;;;;;1.93;1.60;;;18.50;94.50;;;;;;5042625;28;20561;-77
2021/08/06 07:02:46;;;;;;;1.57;1.47;;;18.40;94.70;;;;;;5036395;28;20549;-78
2021/08/06 07:05:14;;;;;;;1.40;1.30;;;18.40;94.80;;;;;;5047571;28;20900;-78
2021/08/06 07:07:42;;;;;;;1.30;1.20;;;18.40;94.70;;;;;;5045831;28;20457;-79
2021/08/06 07:10:10;;;;;;;1.67;1.57;;;18.50;94.80;;;;;;5048528;28;20478;-78
2021/08/06 07:12:37;;;;;;;1.40;1.30;;;18.60;94.70;;;;;;5056180;28;20476;-78
2021/08/06 07:15:06;;;;;;;2.13;1.47;;;18.70;94.30;;;;;;5048050;28;20483;-79
2021/08/06 07:17:34;;;;;;;1.37;1.20;;;18.90;93.30;;;;;;5028519;28;20493;-76
2021/08/06 07:20:01;;;;;;;1.93;1.30;;;19.00;92.30;;;;;;5044345;28;20489;-77
2021/08/06 07:22:28;;;;;;;2.83;1.30;;;19.30;91.00;;;;;;5057710;28;20429;-77
2021/08/06 07:24:56;;;;;;;1.57;1.47;;;19.40;89.40;;;;;;5061075;28;20420;-76
2021/08/06 07:27:24;;;;;;;1.60;1.50;;;19.60;88.80;;;;;;5058736;28;20428;-76
2021/08/06 07:29:51;;;;;;;1.27;1.17;;;19.60;87.20;;;;;;5034848;28;21139;-77
2021/08/06 07:32:18;;;;;;;5.13;1.60;;;19.60;87.80;;;;;;5034184;28;20432;-78
2021/08/06 07:34:45;;;;;;;2.73;1.40;;;19.30;88.30;;;;;;5032614;28;21036;-78
2021/08/06 07:37:12;;;;;;;1.70;1.60;;;19.30;90.50;;;;;;5041218;28;20558;-77
2021/08/06 07:39:39;;;;;;;5.17;1.40;;;19.60;88.40;;;;;;5044871;28;20494;-77
2021/08/06 07:42:08;;;;;;;2.60;1.40;;;19.70;85.10;;;;;;5036636;28;20476;-78
2021/08/06 07:44:35;;;;;;;3.23;1.40;;;19.80;85.20;;;;;;5037319;28;20548;-78
2021/08/06 07:47:02;;;;;;;1.90;1.63;;;19.90;83.70;;;;;;5041387;28;20468;-77
2021/08/06 07:49:29;;;;;;;1.53;1.17;;;20.10;82.20;;;;;;5035012;28;20493;-77
2021/08/06 07:51:56;;;;;;;2.23;1.40;;;20.00;81.70;;;;;;5040652;28;20544;-78
2021/08/06 07:54:23;;;;;;;2.40;1.40;;;20.00;80.40;;;;;;5052502;28;20572;-78
2021/08/06 07:56:50;;;;;;;2.63;1.47;;;19.90;80.30;;;;;;5038107;28;20581;-77
2021/08/06 07:59:19;;;;;;;1.73;1.30;;;19.90;81.50;;;;;;5037182;28;20869;-77
2021/08/06 08:01:46;;;;;;;2.03;1.60;;;19.70;82.70;;;;;;5052835;28;20477;-77
2021/08/06 08:04:13;;;;;;;1.67;1.30;;;19.60;80.30;;;;;;5071445;28;20496;-78
2021/08/06 08:06:40;;;;;;;2.07;1.50;;;19.70;79.70;;;;;;5059565;28;20474;-78
2021/08/06 08:09:07;;;;;;;1.20;1.20;;;19.90;78.20;;;;;;5051646;28;20533;-77
2021/08/06 08:11:34;;;;;;;1.63;1.30;;;20.10;76.80;;;;;;5037602;28;20502;-76
2021/08/06 08:14:01;;;;;;;2.43;1.20;;;20.40;76.90;;;;;;5035820;28;20833;-77
2021/08/06 08:16:29;;;;;;;1.67;1.13;;;20.50;74.80;;;;;;5038098;28;20483;-77
2021/08/06 08:18:56;;;;;;;1.53;1.20;;;20.60;73.10;;;;;;5038900;28;20487;-76
2021/08/06 08:21:23;;;;;;;1.40;1.30;;;20.70;72.80;;;;;;5035268;28;21027;-76
2021/08/06 08:23:50;;;;;;;1.40;1.30;;;20.90;72.50;;;;;;5035193;28;20490;-77
2021/08/06 08:26:17;;;;;;;3.20;1.20;;;21.00;69.80;;;;;;5034835;28;20790;-76
2021/08/06 08:28:44;;;;;;;1.20;1.10;;;21.10;70.10;;;;;;5036706;28;20521;-78
2021/08/06 08:31:11;;;;;;;2.27;1.20;;;21.10;68.80;;;;;;5041282;28;20992;-77
2021/08/06 08:33:39;;;;;;;1.17;0.90;;;21.20;68.90;;;;;;5036795;28;20543;-77
2021/08/06 08:36:07;;;;;;;2.70;1.07;;;21.50;67.50;;;;;;5039539;28;20518;-78
2021/08/06 08:38:33;;;;;;;1.30;1.20;;;21.70;66.00;;;;;;5040020;28;20457;-78
2021/08/06 08:41:00;;;;;;;1.10;1.00;;;22.00;63.30;;;;;;5026433;28;20831;-77
2021/08/06 08:43:28;;;;;;;1.43;0.80;;;22.10;61.60;;;;;;5037503;28;20485;-77
2021/08/06 08:45:56;;;;;;;0.90;0.90;;;22.10;61.40;;;;;;5036824;28;20791;-78
2021/08/06 08:48:23;;;;;;;0.70;0.70;;;22.30;60.70;;;;;;5035033;28;20544;-77
2021/08/06 08:50:53;;;;;;;1.10;0.90;;;22.50;60.10;;;;;;5065865;22;20494;-79
2021/08/06 08:53:21;;;;;;;3.90;1.10;;;22.70;58.80;;;;;;5053910;28;20449;-79
2021/08/06 08:55:48;;;;;;;2.80;1.20;;;22.80;56.60;;;;;;5081459;28;20486;-79
2021/08/06 08:58:15;;;;;;;1.43;0.97;;;22.80;57.10;;;;;;5058221;28;20835;-79
2021/08/06 09:00:42;;;;;;;1.53;0.73;;;22.60;56.70;;;;;;5057778;28;20512;-78
2021/08/06 09:03:10;;;;;;;1.17;1.00;;;22.40;57.60;;;;;;5059277;28;20460;-79
2021/08/06 09:05:36;;;;;;;5.20;1.30;;;22.10;58.00;;;;;;5058483;28;20460;-79
2021/08/06 09:08:19;;;;;;;4.20;1.13;;;21.70;61.00;;;;;;5058118;28;20483;-78
2021/08/06 09:10:47;;;;;;;1.30;1.20;;;21.30;63.80;;;;;;5057738;28;20479;-79
2021/08/06 09:13:13;;;;;;;6.63;1.60;;;21.10;65.20;;;;;;5058826;28;20524;-78
2021/08/06 09:15:46;;;;;;;4.23;1.57;;;20.90;70.70;;;;;;5059884;28;20459;-79
2021/08/06 09:18:35;;;;;;;2.27;1.33;;;20.50;72.70;;;;;;5059613;28;20481;-78
2021/08/06 09:21:06;;;;;;;4.60;1.93;;;20.00;81.30;;;;;;5053876;28;20523;-78
2021/08/06 09:23:46;;;;;;;1.77;1.67;;;19.80;85.20;;;;;;5064589;28;20416;-77
2021/08/06 09:26:41;;;;;;;1.80;1.37;;;19.90;79.10;;;;;;5060850;28;20454;-77
2021/08/06 09:29:10;;;;;;;3.40;1.30;;;20.30;80.70;;;;;;5055394;28;20493;-77
2021/08/06 09:31:41;;;;;;;1.33;1.20;;;20.80;77.50;;;;;;5052907;28;20577;-78
2021/08/06 09:34:09;;;;;;;1.50;1.40;;;21.20;71.50;;;;;;5051850;28;20498;-77
2021/08/06 09:36:36;;;;;;;2.83;1.40;;;21.30;70.80;;;;;;5054596;28;20484;-80
2021/08/06 09:39:14;;;;;;;1.53;1.43;;;21.50;66.40;;;;;;5076116;28;20539;-79
2021/08/06 09:41:43;;;;;;;2.40;1.53;;;21.30;69.00;;;;;;5078306;28;20499;-80
2021/08/06 09:44:18;;;;;;;3.23;1.50;;;21.30;65.90;;;;;;5076552;28;20467;-80
2021/08/06 09:46:46;;;;;;;1.80;1.23;;;21.40;66.40;;;;;;5060806;28;20472;-81
2021/08/06 09:49:13;;;;;;;3.50;1.43;;;21.50;67.40;;;;;;5060932;28;20456;-81
2021/08/06 09:51:42;;;;;;;1.43;1.00;;;21.60;67.20;;;;;;5060157;28;20928;-80
2021/08/06 09:54:19;;;;;;;4.70;1.33;;;22.00;64.00;;;;;;5063237;28;20447;-81
2021/08/06 09:56:48;;;;;;;1.70;1.20;;;22.00;60.40;;;;;;5063055;28;20480;-80
2021/08/06 09:59:27;;;;;;;4.73;1.37;;;22.20;57.20;;;;;;5065028;28;20434;-80
2021/08/06 10:02:14;;;;;;;2.60;1.27;;;22.20;56.60;;;;;;5072313;28;20533;-79
2021/08/06 10:04:43;;;;;;;2.83;1.20;;;22.10;55.00;;;;;;5060337;28;20411;-78
2021/08/06 10:07:11;;;;;;;3.33;1.27;;;21.90;54.30;;;;;;5059849;28;20467;-79
2021/08/06 10:09:40;;;;;;;1.77;1.30;;;21.50;56.10;;;;;;5059229;28;20926;-80
2021/08/06 10:12:07;;;;;;;1.60;0.90;;;21.20;59.70;;;;;;5060928;28;20494;-81
2021/08/06 10:14:36;;;;;;;2.10;1.00;;;20.90;62.40;;;;;;5062590;28;20461;-81
2021/08/06 10:17:03;;;;;;;1.23;1.13;;;20.90;59.40;;;;;;5071905;28;20495;-80
2021/08/06 10:19:31;;;;;;;1.10;1.00;;;21.10;60.90;;;;;;5075592;28;20464;-80
2021/08/06 10:21:59;;;;;;;1.47;1.20;;;21.50;60.00;;;;;;5066242;28;20539;-82
2021/08/06 10:24:26;;;;;;;4.83;1.20;;;21.80;60.20;;;;;;5063072;28;20464;-80
2021/08/06 10:26:56;;;;;;;1.20;1.10;;;22.20;57.80;;;;;;5062260;28;20453;-81
2021/08/06 10:29:24;;;;;;;25.83;2.03;;;22.30;57.40;;;;;;5061419;28;20655;-81
2021/08/06 10:32:09;;;;;;;6.23;1.40;;;22.30;58.00;;;;;;5062858;28;20472;-81
2021/08/06 10:35:16;;;;;;;2.97;1.30;;;22.40;59.00;;;;;;5060944;28;20763;-82
2021/08/06 10:38:00;;;;;;;2.63;1.20;;;22.60;55.40;;;;;;5062186;28;20840;-82
2021/08/06 10:41:05;;;;;;;1.73;1.10;;;22.30;56.50;;;;;;5060399;28;20480;-82
2021/08/06 10:44:02;;;;;;;4.77;1.70;;;22.20;57.30;;;;;;5063439;28;20452;-82
2021/08/06 10:46:58;;;;;;;0.80;0.80;;;21.90;60.30;;;;;;5062144;28;20836;-82
2021/08/06 10:49:26;;;;;;;2.20;1.20;;;21.70;58.90;;;;;;5069918;28;20452;-82
2021/08/06 10:52:15;;;;;;;2.53;1.30;;;21.70;58.10;;;;;;5069696;28;20495;-82
2021/08/06 10:54:44;;;;;;;3.57;1.20;;;21.80;56.90;;;;;;5072342;28;20453;-81
2021/08/06 10:57:31;;;;;;;2.07;1.00;;;22.00;55.80;;;;;;5069319;28;20490;-81
2021/08/06 11:00:02;;;;;;;2.60;1.20;;;22.10;54.40;;;;;;5069212;28;20524;-81
2021/08/06 11:02:46;;;;;;;1.17;0.80;;;21.90;54.80;;;;;;5069403;28;20424;-83
2021/08/06 11:05:37;;;;;;;2.37;0.90;;;21.70;54.40;;;;;;5071255;28;20544;-82
2021/08/06 11:08:54;;;;;;;2.73;0.93;;;21.70;56.00;;;;;;5064750;28;20438;-83
2021/08/06 11:11:45;;;;;;;1.67;1.00;;;22.10;55.00;;;;;;5080981;28;20461;-81
2021/08/06 11:14:14;;;;;;;2.00;1.17;;;22.70;52.30;;;;;;5072558;28;20493;-82
2021/08/06 11:17:07;;;;;;;3.40;1.00;;;23.00;51.70;;;;;;5079120;28;20438;-81
2021/08/06 11:19:37;;;;;;;2.20;1.00;;;23.30;50.90;;;;;;5080445;28;20449;-81
2021/08/06 11:22:07;;;;;;;1.23;0.80;;;23.60;49.30;;;;;;5071321;28;20474;-82
2021/08/06 11:24:39;;;;;;;2.10;1.10;;;23.70;47.10;;;;;;5065458;28;20507;-82
2021/08/06 11:27:07;;;;;;;1.80;1.20;;;23.20;48.70;;;;;;5067866;28;20787;-83
2021/08/06 11:29:34;;;;;;;1.90;0.97;;;23.10;48.60;;;;;;5064601;28;20441;-82
2021/08/06 11:32:07;;;;;;;1.80;0.93;;;23.50;49.30;;;;;;5064964;28;20476;-83
2021/08/06 11:34:53;;;;;;;2.30;0.70;;;23.60;48.50;;;;;;5066365;28;20461;-83
2021/08/06 11:37:22;;;;;;;1.80;0.87;;;23.70;46.70;;;;;;5066074;28;20578;-82
2021/08/06 11:40:07;;;;;;;1.30;1.20;;;23.70;45.90;;;;;;5065481;28;20453;-83
2021/08/06 11:42:34;;;;;;;2.57;0.67;;;23.60;45.30;;;;;;5073349;28;20460;-83
2021/08/06 11:45:01;;;;;;;2.20;1.10;;;23.50;44.60;;;;;;5075919;28;20464;-83
2021/08/06 11:47:47;;;;;;;3.10;0.90;;;23.40;45.20;;;;;;5075581;28;20457;-82
2021/08/06 11:50:16;;;;;;;1.50;0.80;;;23.50;43.80;;;;;;5078745;28;20483;-82
2021/08/06 11:52:45;;;;;;;2.00;1.00;;;23.70;42.30;;;;;;5079524;28;20531;-82
2021/08/06 11:55:17;;;;;;;1.27;0.90;;;23.90;42.50;;;;;;5080304;28;20425;-83
2021/08/06 11:57:49;;;;;;;1.40;0.73;;;24.00;42.40;;;;;;5077949;28;20527;-83
2021/08/06 12:00:22;;;;;;;2.23;0.93;;;23.90;42.50;;;;;;5061863;28;20481;-83
2021/08/06 12:03:06;;;;;;;4.37;1.20;;;23.80;42.30;;;;;;5073867;28;20427;-82
2021/08/06 12:05:36;;;;;;;0.60;0.60;;;23.80;42.30;;;;;;5079121;28;20493;-81
2021/08/06 12:08:21;;;;;;;2.00;0.90;;;23.80;42.30;;;;;;5078557;28;20442;-82
2021/08/06 12:10:50;;;;;;;4.53;1.10;;;24.10;41.30;;;;;;5070024;28;20468;-83
2021/08/06 12:13:26;;;;;;;1.00;0.70;;;24.20;40.10;;;;;;5060552;28;20458;-83
2021/08/06 12:16:07;;;;;;;1.73;0.70;;;23.90;39.80;;;;;;5060318;28;20795;-82
2021/08/06 12:18:39;;;;;;;2.30;0.90;;;23.50;40.40;;;;;;5060270;28;20455;-83
2021/08/06 12:21:11;;;;;;;2.10;0.90;;;23.20;39.40;;;;;;5061134;28;20423;-83
2021/08/06 12:23:48;;;;;;;1.17;0.70;;;22.90;40.70;;;;;;5064881;28;20448;-83
2021/08/06 12:26:42;;;;;;;1.43;0.90;;;22.80;40.30;;;;;;5065180;28;20448;-83
2021/08/06 12:29:16;;;;;;;1.90;0.70;;;23.00;40.50;;;;;;5063575;28;20432;-83
2021/08/06 12:31:58;;;;;;;2.50;0.80;;;23.40;39.60;;;;;;5062768;28;20458;-82
2021/08/06 12:34:35;;;;;;;2.80;0.90;;;23.70;38.50;;;;;;5071632;28;20454;-84
2021/08/06 12:37:06;;;;;;;1.37;0.80;;;23.80;39.20;;;;;;5062692;28;20519;-83
2021/08/06 12:39:38;;;;;;;1.90;0.97;;;23.60;41.80;;;;;;5062075;28;20484;-83
2021/08/06 12:42:15;;;;;;;3.27;1.17;;;23.20;41.80;;;;;;5069366;28;20428;-84
2021/08/06 12:44:54;;;;;;;4.93;1.07;;;23.40;42.00;;;;;;5064154;28;20431;-83
2021/08/06 12:47:22;;;;;;;1.80;1.10;;;23.50;42.10;;;;;;5064145;28;20503;-83
2021/08/06 12:53:11;;;;;;;1.70;0.80;;;23.00;44.00;;;;;;5059057;28;20445;-84
2021/08/06 12:55:39;;;;;;;3.73;1.33;;;23.40;42.00;;;;;;5071044;28;20467;-83
2021/08/06 12:58:22;;;;;;;3.90;0.83;;;23.70;42.40;;;;;;5080886;28;20472;-85
2021/08/06 13:00:54;;;;;;;2.03;0.80;;;24.10;42.00;;;;;;5086086;28;20821;-83
2021/08/06 13:03:23;;;;;;;2.47;0.80;;;24.40;40.50;;;;;;5092404;28;20516;-83
2021/08/06 13:06:05;;;;;;;1.80;0.73;;;24.60;40.50;;;;;;5095971;28;20448;-82